sensor_id;sensor_type;location;lat;lon;timestamp;pressure;altitude;pressure_sealevel;temperature
74321;BMP280;62738;45.772;4.804;2023-01-09T00:01:58;98582.75;;;12.68
74321;BMP280;62738;45.772;4.804;2023-01-09T00:04:24;98573.56;;;12.54
74321;BMP280;62738;45.772;4.804;2023-01-09T00:06:52;98580.13;;;12.47
74321;BMP280;62738;45.772;4.804;2023-01-09T00:09:23;98579.53;;;12.48
74321;BMP280;62738;45.772;4.804;2023-01-09T00:11:50;98586.16;;;12.55
74321;BMP280;62738;45.772;4.804;2023-01-09T00:14:17;98588.72;;;12.51
74321;BMP280;62738;45.772;4.804;2023-01-09T00:16:44;98594.88;;;12.49
74321;BMP280;62738;45.772;4.804;2023-01-09T00:19:11;98594.63;;;12.57
74321;BMP280;62738;45.772;4.804;2023-01-09T00:21:38;98611.56;;;12.49
74321;BMP280;62738;45.772;4.804;2023-01-09T00:24:05;98603.09;;;12.59
74321;BMP280;62738;45.772;4.804;2023-01-09T00:26:32;98609.63;;;12.52
74321;BMP280;62738;45.772;4.804;2023-01-09T00:28:59;98599.22;;;12.41
74321;BMP280;62738;45.772;4.804;2023-01-09T00:31:25;98617.72;;;12.36
74321;BMP280;62738;45.772;4.804;2023-01-09T00:34:00;98616.13;;;12.33
74321;BMP280;62738;45.772;4.804;2023-01-09T00:36:28;98620.97;;;12.21
74321;BMP280;62738;45.772;4.804;2023-01-09T00:38:54;98637.03;;;12.22
74321;BMP280;62738;45.772;4.804;2023-01-09T00:41:34;98637.28;;;12.15
74321;BMP280;62738;45.772;4.804;2023-01-09T00:44:11;98630.25;;;12.25
74321;BMP280;62738;45.772;4.804;2023-01-09T00:46:45;98635.59;;;12.21
74321;BMP280;62738;45.772;4.804;2023-01-09T00:49:14;98644.88;;;12.26
74321;BMP280;62738;45.772;4.804;2023-01-09T00:51:41;98667.50;;;12.32
74321;BMP280;62738;45.772;4.804;2023-01-09T00:54:10;98671.03;;;12.21
74321;BMP280;62738;45.772;4.804;2023-01-09T00:56:40;98677.50;;;12.70
74321;BMP280;62738;45.772;4.804;2023-01-09T00:59:06;98696.22;;;13.16
74321;BMP280;62738;45.772;4.804;2023-01-09T01:01:33;98701.53;;;12.42
74321;BMP280;62738;45.772;4.804;2023-01-09T01:04:00;98714.97;;;12.57
74321;BMP280;62738;45.772;4.804;2023-01-09T01:06:46;98732.88;;;12.10
74321;BMP280;62738;45.772;4.804;2023-01-09T01:09:32;98742.22;;;12.26
74321;BMP280;62738;45.772;4.804;2023-01-09T01:12:00;98748.88;;;12.00
74321;BMP280;62738;45.772;4.804;2023-01-09T01:14:26;98753.22;;;12.24
74321;BMP280;62738;45.772;4.804;2023-01-09T01:16:53;98748.91;;;11.78
74321;BMP280;62738;45.772;4.804;2023-01-09T01:19:19;98754.06;;;11.72
74321;BMP280;62738;45.772;4.804;2023-01-09T01:21:46;98756.44;;;12.09
74321;BMP280;62738;45.772;4.804;2023-01-09T01:24:13;98767.41;;;12.07
74321;BMP280;62738;45.772;4.804;2023-01-09T01:26:39;98787.53;;;12.50
74321;BMP280;62738;45.772;4.804;2023-01-09T01:29:06;98790.78;;;12.13
74321;BMP280;62738;45.772;4.804;2023-01-09T01:31:32;98802.44;;;12.00
74321;BMP280;62738;45.772;4.804;2023-01-09T01:33:59;98812.22;;;12.01
74321;BMP280;62738;45.772;4.804;2023-01-09T01:36:25;98814.50;;;12.47
74321;BMP280;62738;45.772;4.804;2023-01-09T01:38:52;98829.50;;;12.00
74321;BMP280;62738;45.772;4.804;2023-01-09T01:41:19;98831.09;;;11.81
74321;BMP280;62738;45.772;4.804;2023-01-09T01:43:56;98848.56;;;11.63
74321;BMP280;62738;45.772;4.804;2023-01-09T01:46:23;98841.00;;;12.06
74321;BMP280;62738;45.772;4.804;2023-01-09T01:49:17;98847.47;;;11.46
74321;BMP280;62738;45.772;4.804;2023-01-09T01:51:49;98854.28;;;11.65
74321;BMP280;62738;45.772;4.804;2023-01-09T01:54:22;98857.44;;;12.02
74321;BMP280;62738;45.772;4.804;2023-01-09T01:56:53;98846.63;;;12.71
74321;BMP280;62738;45.772;4.804;2023-01-09T01:59:25;98846.91;;;12.00
74321;BMP280;62738;45.772;4.804;2023-01-09T02:04:29;98837.25;;;11.49
74321;BMP280;62738;45.772;4.804;2023-01-09T02:07:01;98840.28;;;11.53
74321;BMP280;62738;45.772;4.804;2023-01-09T02:09:29;98845.13;;;11.12
74321;BMP280;62738;45.772;4.804;2023-01-09T02:11:56;98831.09;;;11.20
74321;BMP280;62738;45.772;4.804;2023-01-09T02:14:27;98835.66;;;11.05
74321;BMP280;62738;45.772;4.804;2023-01-09T02:17:12;98826.44;;;11.13
74321;BMP280;62738;45.772;4.804;2023-01-09T02:20:07;98827.88;;;11.14
74321;BMP280;62738;45.772;4.804;2023-01-09T02:30:57;98874.13;;;11.30
74321;BMP280;62738;45.772;4.804;2023-01-09T02:38:48;98909.53;;;11.20
74321;BMP280;62738;45.772;4.804;2023-01-09T02:41:39;98903.34;;;11.31
74321;BMP280;62738;45.772;4.804;2023-01-09T02:44:24;98912.22;;;11.49
74321;BMP280;62738;45.772;4.804;2023-01-09T02:49:49;98911.88;;;11.64
74321;BMP280;62738;45.772;4.804;2023-01-09T02:53:19;98909.63;;;11.32
74321;BMP280;62738;45.772;4.804;2023-01-09T02:58:11;98916.47;;;11.50
74321;BMP280;62738;45.772;4.804;2023-01-09T03:08:53;98916.84;;;11.06
74321;BMP280;62738;45.772;4.804;2023-01-09T03:11:20;98918.19;;;10.95
74321;BMP280;62738;45.772;4.804;2023-01-09T03:13:54;98925.22;;;10.96
74321;BMP280;62738;45.772;4.804;2023-01-09T03:16:25;98923.69;;;11.15
74321;BMP280;62738;45.772;4.804;2023-01-09T03:18:55;98920.56;;;11.39
74321;BMP280;62738;45.772;4.804;2023-01-09T03:21:22;98926.38;;;11.93
74321;BMP280;62738;45.772;4.804;2023-01-09T03:23:56;98935.03;;;11.57
74321;BMP280;62738;45.772;4.804;2023-01-09T03:26:24;98933.00;;;11.48
74321;BMP280;62738;45.772;4.804;2023-01-09T03:28:51;98939.91;;;11.28
74321;BMP280;62738;45.772;4.804;2023-01-09T03:31:18;98943.97;;;11.36
74321;BMP280;62738;45.772;4.804;2023-01-09T03:33:44;98950.69;;;11.33
74321;BMP280;62738;45.772;4.804;2023-01-09T03:36:12;98953.44;;;11.52
74321;BMP280;62738;45.772;4.804;2023-01-09T03:38:39;98938.47;;;11.27
74321;BMP280;62738;45.772;4.804;2023-01-09T03:41:06;98941.81;;;11.16
74321;BMP280;62738;45.772;4.804;2023-01-09T03:43:33;98943.88;;;10.86
74321;BMP280;62738;45.772;4.804;2023-01-09T03:46:00;98943.00;;;10.84
74321;BMP280;62738;45.772;4.804;2023-01-09T03:48:26;98955.81;;;10.41
74321;BMP280;62738;45.772;4.804;2023-01-09T03:50:54;98953.19;;;10.52
74321;BMP280;62738;45.772;4.804;2023-01-09T03:53:23;98961.69;;;10.74
74321;BMP280;62738;45.772;4.804;2023-01-09T03:55:53;98957.44;;;10.53
74321;BMP280;62738;45.772;4.804;2023-01-09T03:58:20;98959.81;;;10.66
74321;BMP280;62738;45.772;4.804;2023-01-09T04:00:48;98965.63;;;10.70
74321;BMP280;62738;45.772;4.804;2023-01-09T04:03:16;98966.41;;;10.90
74321;BMP280;62738;45.772;4.804;2023-01-09T04:05:44;98971.50;;;10.94
74321;BMP280;62738;45.772;4.804;2023-01-09T04:08:11;98979.25;;;10.95
74321;BMP280;62738;45.772;4.804;2023-01-09T04:10:38;98982.16;;;11.26
74321;BMP280;62738;45.772;4.804;2023-01-09T04:13:05;98986.75;;;11.52
74321;BMP280;62738;45.772;4.804;2023-01-09T04:15:31;98986.34;;;11.46
74321;BMP280;62738;45.772;4.804;2023-01-09T04:17:58;99001.44;;;11.05
74321;BMP280;62738;45.772;4.804;2023-01-09T04:20:24;98997.63;;;11.20
74321;BMP280;62738;45.772;4.804;2023-01-09T04:22:51;99001.41;;;11.43
74321;BMP280;62738;45.772;4.804;2023-01-09T04:25:17;99001.13;;;10.91
74321;BMP280;62738;45.772;4.804;2023-01-09T04:27:44;99014.16;;;10.43
74321;BMP280;62738;45.772;4.804;2023-01-09T04:30:12;99007.53;;;10.65
74321;BMP280;62738;45.772;4.804;2023-01-09T04:32:39;99010.97;;;10.37
74321;BMP280;62738;45.772;4.804;2023-01-09T04:35:06;99022.53;;;10.06
74321;BMP280;62738;45.772;4.804;2023-01-09T04:37:33;99017.50;;;9.68
74321;BMP280;62738;45.772;4.804;2023-01-09T04:40:03;99020.47;;;9.80
74321;BMP280;62738;45.772;4.804;2023-01-09T04:42:38;99019.06;;;9.62
74321;BMP280;62738;45.772;4.804;2023-01-09T04:45:07;99024.84;;;10.00
74321;BMP280;62738;45.772;4.804;2023-01-09T04:47:34;99018.41;;;10.44
74321;BMP280;62738;45.772;4.804;2023-01-09T04:50:01;99015.38;;;10.49
74321;BMP280;62738;45.772;4.804;2023-01-09T04:52:27;99013.31;;;10.04
74321;BMP280;62738;45.772;4.804;2023-01-09T04:54:54;99017.47;;;10.22
74321;BMP280;62738;45.772;4.804;2023-01-09T04:57:21;99019.38;;;9.66
74321;BMP280;62738;45.772;4.804;2023-01-09T04:59:47;99018.97;;;9.96
74321;BMP280;62738;45.772;4.804;2023-01-09T05:02:14;99006.16;;;10.01
74321;BMP280;62738;45.772;4.804;2023-01-09T05:04:40;99016.22;;;9.79
74321;BMP280;62738;45.772;4.804;2023-01-09T05:07:07;99027.28;;;9.52
74321;BMP280;62738;45.772;4.804;2023-01-09T05:09:34;99021.69;;;9.42
74321;BMP280;62738;45.772;4.804;2023-01-09T05:12:01;99023.53;;;9.84
74321;BMP280;62738;45.772;4.804;2023-01-09T05:14:28;99009.09;;;9.76
74321;BMP280;62738;45.772;4.804;2023-01-09T05:16:55;99011.72;;;9.57
74321;BMP280;62738;45.772;4.804;2023-01-09T05:19:22;99017.03;;;9.62
74321;BMP280;62738;45.772;4.804;2023-01-09T05:21:49;99017.00;;;10.16
74321;BMP280;62738;45.772;4.804;2023-01-09T05:24:15;99014.00;;;10.31
74321;BMP280;62738;45.772;4.804;2023-01-09T05:26:42;99025.34;;;10.62
74321;BMP280;62738;45.772;4.804;2023-01-09T05:29:09;99028.94;;;10.45
74321;BMP280;62738;45.772;4.804;2023-01-09T05:31:35;99031.41;;;10.41
74321;BMP280;62738;45.772;4.804;2023-01-09T05:34:02;99026.78;;;10.17
74321;BMP280;62738;45.772;4.804;2023-01-09T05:36:29;99021.97;;;10.17
74321;BMP280;62738;45.772;4.804;2023-01-09T05:38:55;99026.69;;;10.24
74321;BMP280;62738;45.772;4.804;2023-01-09T05:41:23;99050.31;;;10.25
74321;BMP280;62738;45.772;4.804;2023-01-09T05:43:51;99038.97;;;10.31
74321;BMP280;62738;45.772;4.804;2023-01-09T05:46:18;99060.09;;;10.63
74321;BMP280;62738;45.772;4.804;2023-01-09T05:48:44;99056.44;;;10.24
74321;BMP280;62738;45.772;4.804;2023-01-09T05:51:11;99050.66;;;10.39
74321;BMP280;62738;45.772;4.804;2023-01-09T05:53:37;99062.59;;;10.32
74321;BMP280;62738;45.772;4.804;2023-01-09T05:56:04;99067.13;;;10.10
74321;BMP280;62738;45.772;4.804;2023-01-09T05:58:31;99075.34;;;10.18
74321;BMP280;62738;45.772;4.804;2023-01-09T06:00:57;99069.63;;;10.43
74321;BMP280;62738;45.772;4.804;2023-01-09T06:03:24;99070.25;;;10.14
74321;BMP280;62738;45.772;4.804;2023-01-09T06:05:51;99074.75;;;9.83
74321;BMP280;62738;45.772;4.804;2023-01-09T06:08:17;99076.66;;;9.63
74321;BMP280;62738;45.772;4.804;2023-01-09T06:10:45;99072.47;;;9.72
74321;BMP280;62738;45.772;4.804;2023-01-09T06:13:12;99076.72;;;9.56
74321;BMP280;62738;45.772;4.804;2023-01-09T06:15:39;99076.47;;;10.05
74321;BMP280;62738;45.772;4.804;2023-01-09T06:18:05;99078.44;;;9.95
74321;BMP280;62738;45.772;4.804;2023-01-09T06:20:32;99073.56;;;10.13
74321;BMP280;62738;45.772;4.804;2023-01-09T06:22:59;99081.28;;;10.05
74321;BMP280;62738;45.772;4.804;2023-01-09T06:25:26;99078.84;;;10.18
74321;BMP280;62738;45.772;4.804;2023-01-09T06:27:52;99081.28;;;10.05
74321;BMP280;62738;45.772;4.804;2023-01-09T06:30:19;99070.06;;;10.12
74321;BMP280;62738;45.772;4.804;2023-01-09T06:32:49;99081.19;;;9.68
74321;BMP280;62738;45.772;4.804;2023-01-09T06:35:16;99086.41;;;9.47
74321;BMP280;62738;45.772;4.804;2023-01-09T06:37:49;99091.50;;;9.85
74321;BMP280;62738;45.772;4.804;2023-01-09T06:40:16;99089.66;;;9.70
74321;BMP280;62738;45.772;4.804;2023-01-09T06:42:44;99079.56;;;9.14
74321;BMP280;62738;45.772;4.804;2023-01-09T06:45:11;99084.38;;;9.13
74321;BMP280;62738;45.772;4.804;2023-01-09T06:47:39;99076.66;;;9.29
74321;BMP280;62738;45.772;4.804;2023-01-09T06:50:06;99078.88;;;8.88
74321;BMP280;62738;45.772;4.804;2023-01-09T06:52:38;99077.84;;;9.53
74321;BMP280;62738;45.772;4.804;2023-01-09T06:55:06;99082.97;;;10.17
74321;BMP280;62738;45.772;4.804;2023-01-09T06:57:33;99095.50;;;9.05
74321;BMP280;62738;45.772;4.804;2023-01-09T06:59:59;99094.94;;;8.57
74321;BMP280;62738;45.772;4.804;2023-01-09T07:02:26;99091.34;;;8.47
74321;BMP280;62738;45.772;4.804;2023-01-09T07:04:53;99095.88;;;8.85
74321;BMP280;62738;45.772;4.804;2023-01-09T07:07:19;99088.13;;;9.25
74321;BMP280;62738;45.772;4.804;2023-01-09T07:09:48;99090.72;;;9.58
74321;BMP280;62738;45.772;4.804;2023-01-09T07:12:14;99087.84;;;9.48
74321;BMP280;62738;45.772;4.804;2023-01-09T07:14:41;99090.41;;;9.36
74321;BMP280;62738;45.772;4.804;2023-01-09T07:17:11;99098.22;;;9.30
74321;BMP280;62738;45.772;4.804;2023-01-09T07:19:38;99099.19;;;9.25
74321;BMP280;62738;45.772;4.804;2023-01-09T07:22:05;99095.16;;;9.01
74321;BMP280;62738;45.772;4.804;2023-01-09T07:24:32;99103.44;;;8.84
74321;BMP280;62738;45.772;4.804;2023-01-09T07:26:58;99097.81;;;9.34
74321;BMP280;62738;45.772;4.804;2023-01-09T07:29:25;99092.88;;;9.94
74321;BMP280;62738;45.772;4.804;2023-01-09T07:31:52;99097.38;;;9.89
74321;BMP280;62738;45.772;4.804;2023-01-09T07:34:19;99099.03;;;9.58
74321;BMP280;62738;45.772;4.804;2023-01-09T07:36:45;99097.91;;;9.61
74321;BMP280;62738;45.772;4.804;2023-01-09T07:39:14;99093.16;;;9.71
74321;BMP280;62738;45.772;4.804;2023-01-09T07:41:40;99100.94;;;9.99
74321;BMP280;62738;45.772;4.804;2023-01-09T07:44:07;99105.75;;;10.25
74321;BMP280;62738;45.772;4.804;2023-01-09T07:46:36;99118.72;;;9.10
74321;BMP280;62738;45.772;4.804;2023-01-09T07:49:03;99122.00;;;8.34
74321;BMP280;62738;45.772;4.804;2023-01-09T07:51:29;99135.94;;;8.51
74321;BMP280;62738;45.772;4.804;2023-01-09T07:53:56;99124.94;;;9.53
74321;BMP280;62738;45.772;4.804;2023-01-09T07:56:23;99137.50;;;8.87
74321;BMP280;62738;45.772;4.804;2023-01-09T07:58:49;99160.69;;;8.34
74321;BMP280;62738;45.772;4.804;2023-01-09T08:01:16;99151.84;;;8.36
74321;BMP280;62738;45.772;4.804;2023-01-09T08:03:43;99151.38;;;8.54
74321;BMP280;62738;45.772;4.804;2023-01-09T08:06:09;99153.69;;;8.65
74321;BMP280;62738;45.772;4.804;2023-01-09T08:08:36;99155.13;;;9.41
74321;BMP280;62738;45.772;4.804;2023-01-09T08:11:03;99149.66;;;9.33
74321;BMP280;62738;45.772;4.804;2023-01-09T08:13:29;99153.34;;;9.36
74321;BMP280;62738;45.772;4.804;2023-01-09T08:15:56;99152.63;;;8.86
74321;BMP280;62738;45.772;4.804;2023-01-09T08:18:23;99149.25;;;8.95
74321;BMP280;62738;45.772;4.804;2023-01-09T08:20:49;99150.25;;;9.49
74321;BMP280;62738;45.772;4.804;2023-01-09T08:23:19;99156.03;;;9.78
74321;BMP280;62738;45.772;4.804;2023-01-09T08:25:45;99162.09;;;9.25
74321;BMP280;62738;45.772;4.804;2023-01-09T08:28:12;99157.16;;;8.74
74321;BMP280;62738;45.772;4.804;2023-01-09T08:30:39;99159.50;;;9.09
74321;BMP280;62738;45.772;4.804;2023-01-09T08:33:05;99158.09;;;9.18
74321;BMP280;62738;45.772;4.804;2023-01-09T08:35:32;99157.78;;;9.73
74321;BMP280;62738;45.772;4.804;2023-01-09T08:37:59;99153.09;;;9.93
74321;BMP280;62738;45.772;4.804;2023-01-09T08:40:25;99160.81;;;10.39
74321;BMP280;62738;45.772;4.804;2023-01-09T08:42:52;99179.91;;;9.56
74321;BMP280;62738;45.772;4.804;2023-01-09T08:45:37;99172.47;;;9.41
74321;BMP280;62738;45.772;4.804;2023-01-09T08:48:22;99178.94;;;9.61
74321;BMP280;62738;45.772;4.804;2023-01-09T08:50:49;99172.44;;;10.10
74321;BMP280;62738;45.772;4.804;2023-01-09T08:53:16;99179.63;;;10.31
74321;BMP280;62738;45.772;4.804;2023-01-09T08:55:42;99191.38;;;10.21
74321;BMP280;62738;45.772;4.804;2023-01-09T08:58:09;99200.06;;;10.35
74321;BMP280;62738;45.772;4.804;2023-01-09T09:00:36;99193.69;;;10.42
74321;BMP280;62738;45.772;4.804;2023-01-09T09:03:03;99208.72;;;10.66
74321;BMP280;62738;45.772;4.804;2023-01-09T09:05:31;99197.00;;;10.58
74321;BMP280;62738;45.772;4.804;2023-01-09T09:07:58;99193.38;;;10.65
74321;BMP280;62738;45.772;4.804;2023-01-09T09:10:27;99186.00;;;10.50
74321;BMP280;62738;45.772;4.804;2023-01-09T09:12:55;99189.44;;;11.04
74321;BMP280;62738;45.772;4.804;2023-01-09T09:15:23;99191.63;;;10.96
74321;BMP280;62738;45.772;4.804;2023-01-09T09:18:02;99184.13;;;10.89
74321;BMP280;62738;45.772;4.804;2023-01-09T09:20:35;99189.53;;;10.60
74321;BMP280;62738;45.772;4.804;2023-01-09T09:23:02;99188.97;;;10.62
74321;BMP280;62738;45.772;4.804;2023-01-09T09:25:29;99191.34;;;10.65
74321;BMP280;62738;45.772;4.804;2023-01-09T09:27:55;99184.50;;;10.76
74321;BMP280;62738;45.772;4.804;2023-01-09T09:30:22;99192.47;;;10.89
74321;BMP280;62738;45.772;4.804;2023-01-09T09:32:49;99198.03;;;10.62
74321;BMP280;62738;45.772;4.804;2023-01-09T09:35:16;99194.00;;;10.73
74321;BMP280;62738;45.772;4.804;2023-01-09T09:37:52;99201.13;;;10.76
74321;BMP280;62738;45.772;4.804;2023-01-09T09:40:26;99204.69;;;10.50
74321;BMP280;62738;45.772;4.804;2023-01-09T09:46:41;99206.84;;;10.78
74321;BMP280;62738;45.772;4.804;2023-01-09T09:49:16;99205.94;;;11.02
74321;BMP280;62738;45.772;4.804;2023-01-09T09:51:55;99197.56;;;10.93
74321;BMP280;62738;45.772;4.804;2023-01-09T09:54:33;99199.53;;;11.09
74321;BMP280;62738;45.772;4.804;2023-01-09T09:57:02;99205.16;;;11.48
74321;BMP280;62738;45.772;4.804;2023-01-09T09:59:35;99208.84;;;11.70
74321;BMP280;62738;45.772;4.804;2023-01-09T10:04:58;99218.06;;;11.72
74321;BMP280;62738;45.772;4.804;2023-01-09T10:07:34;99232.44;;;11.88
74321;BMP280;62738;45.772;4.804;2023-01-09T10:10:14;99228.38;;;11.33
74321;BMP280;62738;45.772;4.804;2023-01-09T10:12:46;99226.16;;;11.32
74321;BMP280;62738;45.772;4.804;2023-01-09T10:15:28;99224.75;;;11.40
74321;BMP280;62738;45.772;4.804;2023-01-09T10:21:05;99240.59;;;11.76
74321;BMP280;62738;45.772;4.804;2023-01-09T10:23:54;99230.19;;;11.58
74321;BMP280;62738;45.772;4.804;2023-01-09T10:26:36;99239.06;;;11.37
74321;BMP280;62738;45.772;4.804;2023-01-09T10:37:17;99241.00;;;11.07
74321;BMP280;62738;45.772;4.804;2023-01-09T10:42:22;99242.53;;;11.18
74321;BMP280;62738;45.772;4.804;2023-01-09T10:45:05;99238.72;;;11.14
74321;BMP280;62738;45.772;4.804;2023-01-09T10:47:36;99242.00;;;11.02
74321;BMP280;62738;45.772;4.804;2023-01-09T10:50:34;99228.28;;;11.04
74321;BMP280;62738;45.772;4.804;2023-01-09T10:53:15;99232.88;;;10.83
74321;BMP280;62738;45.772;4.804;2023-01-09T10:55:46;99232.22;;;11.01
74321;BMP280;62738;45.772;4.804;2023-01-09T10:58:16;99227.00;;;11.15
74321;BMP280;62738;45.772;4.804;2023-01-09T11:00:44;99213.44;;;11.19
74321;BMP280;62738;45.772;4.804;2023-01-09T11:03:12;99206.03;;;11.41
74321;BMP280;62738;45.772;4.804;2023-01-09T11:05:39;99206.94;;;11.72
74321;BMP280;62738;45.772;4.804;2023-01-09T11:10:46;99203.56;;;12.12
74321;BMP280;62738;45.772;4.804;2023-01-09T11:13:18;99200.34;;;12.16
74321;BMP280;62738;45.772;4.804;2023-01-09T11:15:46;99212.19;;;11.97
74321;BMP280;62738;45.772;4.804;2023-01-09T11:18:24;99220.41;;;11.76
74321;BMP280;62738;45.772;4.804;2023-01-09T11:20:51;99222.16;;;12.00
74321;BMP280;62738;45.772;4.804;2023-01-09T11:23:26;99206.19;;;11.62
74321;BMP280;62738;45.772;4.804;2023-01-09T11:25:56;99208.69;;;11.48
74321;BMP280;62738;45.772;4.804;2023-01-09T11:28:23;99206.06;;;11.70
74321;BMP280;62738;45.772;4.804;2023-01-09T11:30:52;99205.03;;;11.75
74321;BMP280;62738;45.772;4.804;2023-01-09T11:33:23;99196.25;;;12.17
74321;BMP280;62738;45.772;4.804;2023-01-09T11:38:25;99203.59;;;12.03
74321;BMP280;62738;45.772;4.804;2023-01-09T11:40:58;99198.91;;;11.76
74321;BMP280;62738;45.772;4.804;2023-01-09T11:43:37;99208.69;;;11.97
74321;BMP280;62738;45.772;4.804;2023-01-09T11:46:06;99198.44;;;11.99
74321;BMP280;62738;45.772;4.804;2023-01-09T11:48:39;99199.78;;;11.79
74321;BMP280;62738;45.772;4.804;2023-01-09T11:51:17;99198.03;;;11.55
74321;BMP280;62738;45.772;4.804;2023-01-09T11:53:56;99190.97;;;11.34
74321;BMP280;62738;45.772;4.804;2023-01-09T11:56:24;99176.66;;;11.28
74321;BMP280;62738;45.772;4.804;2023-01-09T11:58:51;99178.13;;;11.29
74321;BMP280;62738;45.772;4.804;2023-01-09T12:01:46;99185.41;;;11.34
74321;BMP280;62738;45.772;4.804;2023-01-09T12:04:49;99189.88;;;11.10
74321;BMP280;62738;45.772;4.804;2023-01-09T12:07:31;99216.72;;;10.89
74321;BMP280;62738;45.772;4.804;2023-01-09T12:13:04;99240.56;;;10.48
74321;BMP280;62738;45.772;4.804;2023-01-09T12:15:40;99265.47;;;10.21
74321;BMP280;62738;45.772;4.804;2023-01-09T12:28:56;99271.53;;;9.68
74321;BMP280;62738;45.772;4.804;2023-01-09T12:31:52;99267.72;;;9.80
74321;BMP280;62738;45.772;4.804;2023-01-09T12:37:51;99255.56;;;10.45
74321;BMP280;62738;45.772;4.804;2023-01-09T12:43:56;99241.28;;;10.65
74321;BMP280;62738;45.772;4.804;2023-01-09T12:46:42;99249.31;;;10.71
74321;BMP280;62738;45.772;4.804;2023-01-09T12:52:07;99255.09;;;10.83
74321;BMP280;62738;45.772;4.804;2023-01-09T13:00:02;99252.00;;;10.35
74321;BMP280;62738;45.772;4.804;2023-01-09T13:02:38;99227.44;;;10.48
74321;BMP280;62738;45.772;4.804;2023-01-09T13:05:20;99221.72;;;10.46
74321;BMP280;62738;45.772;4.804;2023-01-09T13:07:51;99228.06;;;10.56
74321;BMP280;62738;45.772;4.804;2023-01-09T13:10:27;99225.00;;;10.35
74321;BMP280;62738;45.772;4.804;2023-01-09T13:12:56;99214.34;;;10.14
74321;BMP280;62738;45.772;4.804;2023-01-09T13:18:28;99229.44;;;10.21
74321;BMP280;62738;45.772;4.804;2023-01-09T13:20:58;99233.81;;;10.41
74321;BMP280;62738;45.772;4.804;2023-01-09T13:23:35;99226.56;;;10.28
74321;BMP280;62738;45.772;4.804;2023-01-09T13:26:12;99223.41;;;10.59
74321;BMP280;62738;45.772;4.804;2023-01-09T13:28:43;99230.59;;;10.62
74321;BMP280;62738;45.772;4.804;2023-01-09T13:34:10;99222.28;;;10.72
74321;BMP280;62738;45.772;4.804;2023-01-09T13:36:49;99207.13;;;10.46
74321;BMP280;62738;45.772;4.804;2023-01-09T13:42:00;99222.13;;;10.43
74321;BMP280;62738;45.772;4.804;2023-01-09T13:44:48;99224.63;;;10.75
74321;BMP280;62738;45.772;4.804;2023-01-09T13:55:24;99225.88;;;10.55
74321;BMP280;62738;45.772;4.804;2023-01-09T14:03:22;99253.88;;;10.49
74321;BMP280;62738;45.772;4.804;2023-01-09T14:08:20;99248.00;;;10.72
74321;BMP280;62738;45.772;4.804;2023-01-09T14:10:54;99255.16;;;10.75
74321;BMP280;62738;45.772;4.804;2023-01-09T14:13:26;99265.66;;;10.94
74321;BMP280;62738;45.772;4.804;2023-01-09T14:16:17;99274.81;;;10.87
74321;BMP280;62738;45.772;4.804;2023-01-09T14:19:31;99274.31;;;10.98
74321;BMP280;62738;45.772;4.804;2023-01-09T14:21:48;99280.19;;;10.58
74321;BMP280;62738;45.772;4.804;2023-01-09T14:24:38;99299.63;;;10.41
74321;BMP280;62738;45.772;4.804;2023-01-09T14:33:24;99306.88;;;10.02
74321;BMP280;62738;45.772;4.804;2023-01-09T14:36:02;99330.25;;;9.91
74321;BMP280;62738;45.772;4.804;2023-01-09T14:38:48;99330.69;;;10.05
74321;BMP280;62738;45.772;4.804;2023-01-09T14:44:30;99349.16;;;9.60
74321;BMP280;62738;45.772;4.804;2023-01-09T14:47:42;99347.84;;;9.86
74321;BMP280;62738;45.772;4.804;2023-01-09T14:49:54;99340.03;;;9.92
74321;BMP280;62738;45.772;4.804;2023-01-09T14:52:26;99347.63;;;9.67
74321;BMP280;62738;45.772;4.804;2023-01-09T14:54:57;99345.47;;;9.58
74321;BMP280;62738;45.772;4.804;2023-01-09T14:57:30;99344.84;;;9.67
74321;BMP280;62738;45.772;4.804;2023-01-09T15:00:04;99347.28;;;9.63
74321;BMP280;62738;45.772;4.804;2023-01-09T15:02:34;99351.66;;;9.73
74321;BMP280;62738;45.772;4.804;2023-01-09T15:05:05;99346.88;;;9.66
74321;BMP280;62738;45.772;4.804;2023-01-09T15:07:38;99355.91;;;9.74
74321;BMP280;62738;45.772;4.804;2023-01-09T15:10:18;99354.88;;;9.62
74321;BMP280;62738;45.772;4.804;2023-01-09T15:12:47;99365.72;;;9.68
74321;BMP280;62738;45.772;4.804;2023-01-09T15:15:16;99366.28;;;9.91
74321;BMP280;62738;45.772;4.804;2023-01-09T15:17:46;99371.69;;;9.81
74321;BMP280;62738;45.772;4.804;2023-01-09T15:20:19;99376.22;;;9.69
74321;BMP280;62738;45.772;4.804;2023-01-09T15:22:48;99382.72;;;9.89
74321;BMP280;62738;45.772;4.804;2023-01-09T15:25:25;99379.94;;;10.14
74321;BMP280;62738;45.772;4.804;2023-01-09T15:28:38;99372.72;;;10.11
74321;BMP280;62738;45.772;4.804;2023-01-09T15:31:11;99405.06;;;9.91
74321;BMP280;62738;45.772;4.804;2023-01-09T15:33:41;99407.66;;;9.89
74321;BMP280;62738;45.772;4.804;2023-01-09T15:36:14;99407.66;;;9.89
74321;BMP280;62738;45.772;4.804;2023-01-09T15:38:43;99415.69;;;10.02
74321;BMP280;62738;45.772;4.804;2023-01-09T15:41:15;99421.31;;;10.12
74321;BMP280;62738;45.772;4.804;2023-01-09T15:44:06;99424.84;;;10.12
74321;BMP280;62738;45.772;4.804;2023-01-09T15:46:38;99441.13;;;10.08
74321;BMP280;62738;45.772;4.804;2023-01-09T15:49:09;99446.41;;;9.97
74321;BMP280;62738;45.772;4.804;2023-01-09T15:51:37;99458.34;;;10.07
74321;BMP280;62738;45.772;4.804;2023-01-09T15:54:03;99458.41;;;9.99
74321;BMP280;62738;45.772;4.804;2023-01-09T15:56:30;99455.63;;;9.99
74321;BMP280;62738;45.772;4.804;2023-01-09T15:58:59;99468.56;;;9.97
74321;BMP280;62738;45.772;4.804;2023-01-09T16:04:13;99469.34;;;9.65
74321;BMP280;62738;45.772;4.804;2023-01-09T16:06:45;99468.44;;;9.87
74321;BMP280;62738;45.772;4.804;2023-01-09T16:09:16;99456.28;;;9.82
74321;BMP280;62738;45.772;4.804;2023-01-09T16:11:48;99465.59;;;9.70
74321;BMP280;62738;45.772;4.804;2023-01-09T16:14:19;99474.09;;;9.72
74321;BMP280;62738;45.772;4.804;2023-01-09T16:16:49;99479.69;;;9.57
74321;BMP280;62738;45.772;4.804;2023-01-09T16:21:58;99491.41;;;9.40
74321;BMP280;62738;45.772;4.804;2023-01-09T16:24:37;99491.03;;;9.43
74321;BMP280;62738;45.772;4.804;2023-01-09T16:27:31;99508.75;;;9.40
74321;BMP280;62738;45.772;4.804;2023-01-09T16:30:04;99514.41;;;9.50
74321;BMP280;62738;45.772;4.804;2023-01-09T16:32:35;99521.72;;;9.38
74321;BMP280;62738;45.772;4.804;2023-01-09T16:35:05;99527.25;;;9.30
74321;BMP280;62738;45.772;4.804;2023-01-09T16:37:33;99534.63;;;9.20
74321;BMP280;62738;45.772;4.804;2023-01-09T16:42:49;99538.16;;;9.21